Time;durP1;ratioP1;P1;durP2;ratioP2;P2;SDS_P1;SDS_P2;PMS_P1;PMS_P2;Temp;Humidity;BMP_temperature;BMP_pressure;BME280_temperature;BME280_humidity;BME280_pressure;Samples;Min_cycle;Max_cycle;Signal;HPM_P1;HPM_P2
2022/11/12 00:02:24;;;;;;;191.97;28.33;;;3.80;99.90;;;;;;5121581;28;20217;-74
2022/11/12 00:04:53;;;;;;;41.83;18.77;;;3.80;99.90;;;;;;5129785;28;20234;-74
2022/11/12 00:07:24;;;;;;;75.57;17.13;;;3.80;99.90;;;;;;5126730;28;20233;-74
2022/11/12 00:12:42;;;;;;;136.47;19.77;;;3.80;99.90;;;;;;5125780;28;20202;-74
2022/11/12 00:15:14;;;;;;;153.57;23.53;;;3.80;99.90;;;;;;5117459;28;20212;-74
2022/11/12 00:17:42;;;;;;;99.80;20.87;;;3.70;99.90;;;;;;5108543;28;20225;-74
2022/11/12 00:20:11;;;;;;;65.00;19.47;;;3.70;99.90;;;;;;5093162;28;20570;-75
2022/11/12 00:22:40;;;;;;;44.67;16.97;;;3.70;99.90;;;;;;5093574;28;20198;-76
2022/11/12 00:25:09;;;;;;;63.67;19.40;;;3.60;99.90;;;;;;5097026;28;20699;-76
2022/11/12 00:27:37;;;;;;;42.90;17.80;;;3.70;99.90;;;;;;5113572;28;20210;-74
2022/11/12 00:30:10;;;;;;;52.80;18.80;;;3.60;99.90;;;;;;5113721;28;20206;-74
2022/11/12 00:32:42;;;;;;;38.20;17.20;;;3.60;99.90;;;;;;5113792;28;20619;-76
2022/11/12 00:35:11;;;;;;;54.83;18.27;;;3.60;99.90;;;;;;5093282;28;20210;-76
2022/11/12 00:37:41;;;;;;;65.53;17.97;;;3.60;99.90;;;;;;5093468;28;20215;-75
2022/11/12 00:40:12;;;;;;;36.37;18.43;;;3.50;99.90;;;;;;5093517;28;20221;-75
2022/11/12 00:42:40;;;;;;;54.23;20.70;;;3.50;99.90;;;;;;5108556;28;20212;-75
2022/11/12 00:45:11;;;;;;;67.77;20.37;;;3.50;99.90;;;;;;5113467;28;20848;-75
2022/11/12 00:47:39;;;;;;;39.27;19.47;;;3.50;99.90;;;;;;5113902;28;20212;-76
2022/11/12 00:50:09;;;;;;;35.40;17.90;;;3.50;99.90;;;;;;5112230;28;20206;-76
2022/11/12 00:52:39;;;;;;;42.97;18.73;;;3.50;99.90;;;;;;5113681;28;20199;-76
2022/11/12 00:55:07;;;;;;;34.70;18.63;;;3.60;99.90;;;;;;5099876;28;20202;-76
2022/11/12 00:57:35;;;;;;;44.33;19.73;;;3.60;99.90;;;;;;5093366;28;20297;-75
2022/11/12 01:00:06;;;;;;;54.57;19.40;;;3.60;99.90;;;;;;5111816;28;20213;-76
2022/11/12 01:02:35;;;;;;;47.57;19.63;;;3.60;99.90;;;;;;5113458;28;20660;-75
2022/11/12 01:05:11;;;;;;;58.97;18.77;;;3.60;99.90;;;;;;5114129;28;20206;-75
2022/11/12 01:07:45;;;;;;;40.77;19.43;;;3.40;99.90;;;;;;5114094;28;20214;-75
2022/11/12 01:10:18;;;;;;;21.47;17.10;;;3.50;99.90;;;;;;5113699;28;20226;-76
2022/11/12 01:12:47;;;;;;;28.30;16.00;;;3.60;99.90;;;;;;5116874;28;20207;-76
2022/11/12 01:15:15;;;;;;;51.53;17.97;;;3.60;99.90;;;;;;5115316;28;20220;-76
2022/11/12 01:17:45;;;;;;;28.07;16.13;;;3.60;99.90;;;;;;5117276;28;20208;-76
2022/11/12 01:20:13;;;;;;;29.30;15.40;;;3.60;99.90;;;;;;5117678;28;20210;-75
2022/11/12 01:22:41;;;;;;;24.73;14.03;;;3.70;99.90;;;;;;5117715;28;20239;-75
2022/11/12 01:25:09;;;;;;;22.23;14.93;;;3.70;99.90;;;;;;5111647;28;20225;-77
2022/11/12 01:27:37;;;;;;;33.40;14.97;;;3.70;99.90;;;;;;5096662;28;20210;-75
2022/11/12 01:30:09;;;;;;;21.00;14.50;;;3.60;99.90;;;;;;5096562;28;20207;-76
2022/11/12 01:32:39;;;;;;;18.67;14.03;;;3.50;99.90;;;;;;5096709;28;20214;-75
2022/11/12 01:35:09;;;;;;;37.50;14.17;;;3.60;99.90;;;;;;5097666;28;20214;-75
2022/11/12 01:37:37;;;;;;;20.87;13.20;;;3.60;99.90;;;;;;5097269;28;20220;-74
2022/11/12 01:40:09;;;;;;;18.87;13.87;;;3.50;99.90;;;;;;5097509;28;20203;-75
2022/11/12 01:42:39;;;;;;;15.00;13.50;;;3.50;99.90;;;;;;5096568;28;20461;-76
2022/11/12 01:45:15;;;;;;;20.03;14.50;;;3.50;99.90;;;;;;5112861;28;20629;-77
2022/11/12 01:47:46;;;;;;;19.93;14.37;;;3.50;99.90;;;;;;5117253;28;20229;-78
2022/11/12 01:50:25;;;;;;;17.57;14.10;;;3.50;99.90;;;;;;5116719;28;20266;-75
2022/11/12 01:52:59;;;;;;;18.43;13.80;;;3.60;99.90;;;;;;5108285;28;20208;-75
2022/11/12 01:55:34;;;;;;;25.03;13.87;;;3.60;99.90;;;;;;5096542;28;20241;-74
2022/11/12 01:58:08;;;;;;;20.20;13.90;;;3.60;99.90;;;;;;5096908;28;20552;-76
2022/11/12 02:00:40;;;;;;;16.07;13.40;;;3.60;99.90;;;;;;5104358;28;20222;-75
2022/11/12 02:03:11;;;;;;;29.00;14.30;;;3.70;99.90;;;;;;5116942;28;20193;-74
2022/11/12 02:05:46;;;;;;;28.03;13.47;;;3.70;99.90;;;;;;5116917;28;20222;-75
2022/11/12 02:08:15;;;;;;;24.53;13.47;;;3.60;99.90;;;;;;5116138;28;20301;-75
2022/11/12 02:10:44;;;;;;;28.37;13.10;;;3.70;99.90;;;;;;5116781;28;20186;-74
2022/11/12 02:15:59;;;;;;;25.37;13.37;;;3.60;99.90;;;;;;5115883;28;20566;-75
2022/11/12 02:18:28;;;;;;;15.23;12.30;;;3.60;99.90;;;;;;5096506;28;20700;-75
2022/11/12 02:20:59;;;;;;;13.13;11.73;;;3.50;99.90;;;;;;5096477;28;20350;-76
2022/11/12 02:23:28;;;;;;;13.73;11.80;;;3.50;99.90;;;;;;5117978;28;20190;-76
2022/11/12 02:25:59;;;;;;;13.40;11.90;;;3.50;99.90;;;;;;5116825;28;20222;-75
2022/11/12 02:28:32;;;;;;;19.80;11.50;;;3.50;99.90;;;;;;5117450;28;20213;-76
2022/11/12 02:31:00;;;;;;;12.70;11.43;;;3.40;99.90;;;;;;5106322;28;20191;-73
2022/11/12 02:33:28;;;;;;;13.23;11.93;;;3.30;99.90;;;;;;5096853;28;20225;-75
2022/11/12 02:35:58;;;;;;;12.97;11.57;;;3.40;99.90;;;;;;5096389;28;20211;-75
2022/11/12 02:38:27;;;;;;;13.10;11.80;;;3.30;99.90;;;;;;5096287;28;20210;-75
2022/11/12 02:40:56;;;;;;;31.57;13.90;;;3.30;99.90;;;;;;5095878;28;20528;-75
2022/11/12 02:43:24;;;;;;;18.83;14.07;;;3.20;99.90;;;;;;5095745;28;20211;-75
2022/11/12 02:45:52;;;;;;;17.13;13.73;;;3.30;99.90;;;;;;5095882;28;20265;-74
2022/11/12 02:48:20;;;;;;;18.00;14.37;;;3.20;99.90;;;;;;5095826;28;20205;-75
2022/11/12 02:50:48;;;;;;;19.33;15.03;;;3.30;99.90;;;;;;5095951;28;20225;-75
2022/11/12 02:53:20;;;;;;;18.93;15.63;;;3.30;99.90;;;;;;5096253;28;20218;-75
2022/11/12 02:55:49;;;;;;;17.37;15.30;;;3.30;99.90;;;;;;5097128;28;20222;-76
2022/11/12 02:58:21;;;;;;;30.03;16.90;;;3.40;99.90;;;;;;5097726;28;20223;-74
2022/11/12 03:00:50;;;;;;;21.50;17.03;;;3.40;99.90;;;;;;5100148;28;20249;-75
2022/11/12 03:03:18;;;;;;;31.63;18.37;;;3.40;99.90;;;;;;5115631;28;20210;-74
2022/11/12 03:05:55;;;;;;;23.67;17.57;;;3.40;99.90;;;;;;5115059;28;20320;-76
2022/11/12 03:08:26;;;;;;;28.63;18.07;;;3.50;99.90;;;;;;5114519;28;20210;-76
2022/11/12 03:10:59;;;;;;;29.13;17.00;;;3.50;99.90;;;;;;5115186;28;20189;-76
2022/11/12 03:13:27;;;;;;;41.57;17.27;;;3.50;99.90;;;;;;5114980;28;20194;-75
2022/11/12 03:16:01;;;;;;;108.00;19.40;;;3.40;99.90;;;;;;5115487;28;20691;-76
2022/11/12 03:18:30;;;;;;;28.60;16.03;;;3.40;99.90;;;;;;5105684;28;20671;-75
2022/11/12 03:20:58;;;;;;;43.27;15.53;;;3.50;99.90;;;;;;5095114;28;20245;-76
2022/11/12 03:23:27;;;;;;;36.77;15.63;;;3.40;99.90;;;;;;5095497;28;20210;-75
2022/11/12 03:25:59;;;;;;;60.93;16.23;;;3.50;99.90;;;;;;5094552;28;20677;-76
2022/11/12 03:28:27;;;;;;;53.87;15.67;;;3.50;99.90;;;;;;5094312;28;20217;-75
2022/11/12 03:30:58;;;;;;;116.97;17.10;;;3.40;99.90;;;;;;5094143;28;20212;-76
2022/11/12 03:33:26;;;;;;;112.13;17.43;;;3.40;99.90;;;;;;5094480;28;20199;-76
2022/11/12 03:35:57;;;;;;;49.50;14.83;;;3.40;99.90;;;;;;5103260;28;20213;-76
2022/11/12 03:38:27;;;;;;;71.37;15.90;;;3.40;99.90;;;;;;5099477;28;20207;-76
2022/11/12 03:40:57;;;;;;;91.40;16.07;;;3.40;99.90;;;;;;5093769;28;20657;-76
2022/11/12 03:43:26;;;;;;;115.10;15.33;;;3.30;99.90;;;;;;5094297;28;20241;-75
2022/11/12 03:46:00;;;;;;;97.47;15.70;;;3.30;99.90;;;;;;5105095;28;20233;-75
2022/11/12 03:48:30;;;;;;;61.83;14.73;;;3.30;99.90;;;;;;5114325;28;20231;-76
2022/11/12 03:51:00;;;;;;;72.47;14.10;;;3.30;99.90;;;;;;5099479;28;20610;-76
2022/11/12 03:53:28;;;;;;;64.20;13.40;;;3.30;99.90;;;;;;5094232;28;20210;-76
2022/11/12 03:55:58;;;;;;;91.53;14.90;;;3.30;99.90;;;;;;5093394;28;20225;-76
2022/11/12 03:58:26;;;;;;;59.13;13.53;;;3.20;99.90;;;;;;5108802;28;20236;-75
2022/11/12 04:00:55;;;;;;;34.10;12.83;;;3.30;99.90;;;;;;5113600;28;20225;-76
2022/11/12 04:03:23;;;;;;;58.57;15.50;;;3.30;99.90;;;;;;5114771;28;20221;-76
2022/11/12 04:08:37;;;;;;;78.37;15.77;;;3.40;99.90;;;;;;5114624;28;20241;-74
2022/11/12 04:11:11;;;;;;;68.63;15.73;;;3.30;99.90;;;;;;5098969;28;20215;-76
2022/11/12 04:13:40;;;;;;;95.53;16.47;;;3.30;99.90;;;;;;5094195;28;20590;-75
2022/11/12 04:21:56;;;;;;;70.93;15.93;;;3.30;99.90;;;;;;5093772;28;20244;-75
2022/11/12 04:27:16;;;;;;;53.53;14.40;;;3.30;99.90;;;;;;5093412;28;20217;-76
2022/11/12 04:32:35;;;;;;;96.67;17.33;;;3.30;99.90;;;;;;5113922;28;20690;-77
2022/11/12 04:35:04;;;;;;;64.13;15.87;;;3.20;99.90;;;;;;5112225;28;20216;-76
2022/11/12 04:37:44;;;;;;;72.80;17.90;;;3.20;99.90;;;;;;5114121;28;20636;-76
2022/11/12 04:45:50;;;;;;;74.77;15.87;;;3.20;99.90;;;;;;5113993;28;20711;-77
2022/11/12 04:48:19;;;;;;;172.73;21.83;;;3.20;99.90;;;;;;5110037;28;20224;-77
2022/11/12 04:50:56;;;;;;;94.97;16.87;;;3.20;99.90;;;;;;5093291;28;20720;-76
2022/11/12 04:53:27;;;;;;;110.03;18.20;;;3.20;99.90;;;;;;5097705;28;20221;-76
2022/11/12 04:55:57;;;;;;;79.20;15.80;;;3.20;99.90;;;;;;5097520;28;20221;-76
2022/11/12 04:58:27;;;;;;;141.37;19.30;;;3.20;99.90;;;;;;5097776;28;20211;-76
2022/11/12 05:00:55;;;;;;;88.93;16.40;;;3.10;99.90;;;;;;5097817;28;20249;-74
2022/11/12 05:03:26;;;;;;;129.27;24.00;;;3.10;99.90;;;;;;5097836;28;20588;-77
2022/11/12 05:06:01;;;;;;;104.60;17.10;;;3.10;99.90;;;;;;5097270;28;20219;-76
2022/11/12 05:08:29;;;;;;;81.17;30.37;;;3.10;99.90;;;;;;5097741;28;20207;-78
2022/11/12 05:10:57;;;;;;;96.10;24.80;;;3.10;99.90;;;;;;5118405;28;20194;-77
2022/11/12 05:13:28;;;;;;;61.97;20.90;;;3.00;99.90;;;;;;5117929;28;20291;-76
2022/11/12 05:15:56;;;;;;;68.63;18.93;;;3.10;99.90;;;;;;5117651;28;20208;-74
2022/11/12 05:18:24;;;;;;;60.47;15.27;;;3.10;99.90;;;;;;5116984;28;20214;-78
2022/11/12 05:20:53;;;;;;;98.10;17.67;;;2.90;99.90;;;;;;5117749;28;20212;-76
2022/11/12 05:23:21;;;;;;;68.17;14.23;;;3.00;99.90;;;;;;5118552;28;20266;-78
2022/11/12 05:25:52;;;;;;;70.67;14.27;;;3.00;99.90;;;;;;5115865;28;20209;-80
2022/11/12 05:28:20;;;;;;;53.87;13.60;;;2.90;99.90;;;;;;5114626;28;20286;-76
2022/11/12 05:30:51;;;;;;;52.57;13.40;;;2.90;99.90;;;;;;5105291;28;20599;-75
2022/11/12 05:33:20;;;;;;;40.03;13.53;;;3.00;99.90;;;;;;5097909;28;20567;-75
2022/11/12 05:35:50;;;;;;;73.17;18.13;;;3.00;99.90;;;;;;5101106;28;20233;-76
2022/11/12 05:38:21;;;;;;;93.77;17.90;;;2.90;99.90;;;;;;5119119;28;20209;-76
2022/11/12 05:40:53;;;;;;;36.83;14.80;;;3.00;99.90;;;;;;5118722;28;20213;-74
2022/11/12 05:43:21;;;;;;;70.37;18.40;;;3.00;99.90;;;;;;5119203;28;20206;-76
2022/11/12 05:45:54;;;;;;;73.27;16.77;;;3.00;99.90;;;;;;5104580;28;20293;-75
2022/11/12 05:48:24;;;;;;;74.87;17.33;;;3.00;99.90;;;;;;5116134;28;20330;-76
2022/11/12 05:50:53;;;;;;;73.73;17.73;;;3.00;99.90;;;;;;5121650;28;20297;-76
2022/11/12 05:53:42;;;;;;;65.93;17.67;;;3.00;99.90;;;;;;5121185;28;20210;-75
2022/11/12 05:56:12;;;;;;;55.40;16.63;;;2.90;99.90;;;;;;5124616;28;20220;-77
2022/11/12 05:58:40;;;;;;;63.33;17.67;;;3.00;99.90;;;;;;5138609;28;20194;-75
2022/11/12 06:01:10;;;;;;;58.73;17.00;;;3.00;99.90;;;;;;5138833;27;20238;-76
2022/11/12 06:03:38;;;;;;;52.07;15.77;;;3.00;99.90;;;;;;5138320;28;20206;-77
2022/11/12 06:06:11;;;;;;;59.80;16.00;;;3.00;99.90;;;;;;5129315;28;20670;-74
2022/11/12 06:08:40;;;;;;;62.47;17.37;;;3.10;99.90;;;;;;5123900;28;20210;-76
2022/11/12 06:11:08;;;;;;;63.13;17.37;;;3.10;99.90;;;;;;5109143;28;20207;-75
2022/11/12 06:13:38;;;;;;;104.47;18.17;;;3.10;99.90;;;;;;5096875;28;20210;-76
2022/11/12 06:16:07;;;;;;;95.97;17.93;;;3.00;99.90;;;;;;5096735;28;20207;-75
2022/11/12 06:18:36;;;;;;;46.10;15.97;;;3.10;99.90;;;;;;5105233;28;20210;-76
2022/11/12 06:21:21;;;;;;;58.30;15.60;;;3.00;99.90;;;;;;5116886;28;20202;-76
2022/11/12 06:23:54;;;;;;;57.20;16.47;;;3.10;99.90;;;;;;5117125;28;20530;-76
2022/11/12 06:26:24;;;;;;;88.77;17.53;;;3.10;99.90;;;;;;5116864;28;20221;-76
2022/11/12 06:28:55;;;;;;;99.47;17.47;;;3.10;99.90;;;;;;5115763;28;20224;-75
2022/11/12 06:31:23;;;;;;;153.00;18.47;;;3.20;99.90;;;;;;5117422;28;20541;-76
2022/11/12 06:33:53;;;;;;;123.80;16.07;;;3.10;99.90;;;;;;5116758;28;20213;-77
2022/11/12 06:36:22;;;;;;;144.60;15.40;;;3.10;99.90;;;;;;5116408;28;20225;-76
2022/11/12 06:38:58;;;;;;;150.50;16.00;;;3.10;99.90;;;;;;5116472;28;20217;-75
2022/11/12 06:41:26;;;;;;;169.47;15.33;;;3.00;99.90;;;;;;5116497;28;20209;-77
2022/11/12 06:43:54;;;;;;;97.63;13.57;;;3.00;99.90;;;;;;5116672;28;20214;-74
2022/11/12 06:46:22;;;;;;;70.83;12.87;;;3.00;99.90;;;;;;5107556;28;20224;-75
2022/11/12 06:48:50;;;;;;;89.13;14.47;;;3.00;99.90;;;;;;5115787;28;20230;-74
2022/11/12 06:51:22;;;;;;;157.17;15.90;;;3.00;99.90;;;;;;5116437;28;20256;-75
2022/11/12 06:53:51;;;;;;;121.73;14.90;;;3.00;99.90;;;;;;5115707;28;20202;-75
2022/11/12 06:56:21;;;;;;;111.17;15.70;;;3.00;99.90;;;;;;5095692;28;20219;-76
2022/11/12 06:58:50;;;;;;;76.97;14.80;;;3.00;99.90;;;;;;5095945;28;20207;-75
2022/11/12 07:01:18;;;;;;;102.53;14.97;;;3.00;99.90;;;;;;5096328;28;20668;-76
2022/11/12 07:03:51;;;;;;;83.47;15.47;;;3.00;99.90;;;;;;5095985;28;20254;-75
2022/11/12 07:06:22;;;;;;;237.50;20.23;;;3.00;99.90;;;;;;5096193;28;20285;-76
2022/11/12 07:08:54;;;;;;;102.40;20.23;;;3.00;99.90;;;;;;5095813;28;20218;-75
2022/11/12 07:11:22;;;;;;;76.57;13.47;;;3.10;99.90;;;;;;5096756;28;20198;-75
2022/11/12 07:13:51;;;;;;;96.50;13.30;;;3.00;99.90;;;;;;5115958;28;20246;-76
2022/11/12 07:16:21;;;;;;;98.70;24.47;;;3.00;99.90;;;;;;5122847;28;20210;-75
2022/11/12 07:18:51;;;;;;;77.23;17.10;;;3.00;99.90;;;;;;5117021;28;20283;-75
2022/11/12 07:21:23;;;;;;;86.50;15.27;;;3.10;99.90;;;;;;5114864;28;20295;-75
2022/11/12 07:23:51;;;;;;;122.83;13.47;;;3.10;99.90;;;;;;5115964;28;20209;-75
2022/11/12 07:26:21;;;;;;;122.50;13.83;;;3.10;99.90;;;;;;5115538;28;20206;-75
2022/11/12 07:28:51;;;;;;;77.20;15.30;;;3.00;99.90;;;;;;5114634;28;20234;-78
2022/11/12 07:31:20;;;;;;;140.23;15.50;;;3.00;99.90;;;;;;5116040;28;20206;-75
2022/11/12 07:33:49;;;;;;;116.43;15.57;;;3.10;99.90;;;;;;5115518;28;20205;-76
2022/11/12 07:36:19;;;;;;;129.83;14.20;;;3.00;99.90;;;;;;5097955;28;20220;-77
2022/11/12 07:38:53;;;;;;;76.50;12.67;;;3.10;99.90;;;;;;5094943;28;20277;-76
2022/11/12 07:41:25;;;;;;;99.93;13.13;;;3.10;99.90;;;;;;5095210;28;20188;-76
2022/11/12 07:43:55;;;;;;;120.43;12.70;;;3.20;99.90;;;;;;5097857;28;20210;-76
2022/11/12 07:46:25;;;;;;;65.97;10.87;;;3.20;99.90;;;;;;5094910;28;20210;-77
2022/11/12 07:48:57;;;;;;;95.93;11.23;;;3.20;99.90;;;;;;5094941;28;20230;-75
2022/11/12 07:51:29;;;;;;;111.93;12.57;;;3.20;99.90;;;;;;5096315;28;20676;-75
2022/11/12 07:53:59;;;;;;;101.50;12.60;;;3.30;99.90;;;;;;5105121;28;20216;-74
2022/11/12 07:56:28;;;;;;;108.33;13.50;;;3.30;99.90;;;;;;5116321;28;20210;-76
2022/11/12 07:58:57;;;;;;;116.13;13.23;;;3.30;99.90;;;;;;5128770;27;20204;-77
2022/11/12 08:01:31;;;;;;;141.90;13.47;;;3.30;99.90;;;;;;5121311;28;20236;-76
2022/11/12 08:04:01;;;;;;;91.83;11.47;;;3.30;99.90;;;;;;5122659;28;20276;-74
2022/11/12 08:06:34;;;;;;;67.87;9.40;;;3.40;99.90;;;;;;5116538;28;20202;-75
2022/11/12 08:09:13;;;;;;;93.37;12.13;;;3.40;99.90;;;;;;5115088;28;20293;-75
2022/11/12 08:11:42;;;;;;;105.87;10.57;;;3.40;99.90;;;;;;5102571;28;20212;-77
2022/11/12 08:14:10;;;;;;;71.33;9.27;;;3.50;99.90;;;;;;5094764;28;20218;-75
2022/11/12 08:16:38;;;;;;;75.00;9.57;;;3.40;99.90;;;;;;5094228;28;20206;-76
2022/11/12 08:19:09;;;;;;;105.17;10.90;;;3.60;99.90;;;;;;5093971;28;20211;-76
2022/11/12 08:21:37;;;;;;;38.77;13.23;;;3.60;99.90;;;;;;5111797;28;20206;-74
2022/11/12 08:24:05;;;;;;;48.03;16.73;;;3.60;99.90;;;;;;5114512;28;20214;-77
2022/11/12 08:26:37;;;;;;;55.10;11.07;;;3.70;99.90;;;;;;5116981;28;20783;-75
2022/11/12 08:29:09;;;;;;;58.37;10.80;;;3.70;99.90;;;;;;5113959;28;20253;-77
2022/11/12 08:31:38;;;;;;;98.77;14.87;;;3.60;99.90;;;;;;5095621;28;20199;-77
2022/11/12 08:34:11;;;;;;;58.63;11.93;;;3.70;99.90;;;;;;5095076;28;20219;-77
2022/11/12 08:36:50;;;;;;;132.73;12.30;;;3.60;99.90;;;;;;5094614;28;20214;-77
2022/11/12 08:39:19;;;;;;;63.33;17.13;;;3.60;99.90;;;;;;5114215;28;20536;-76
2022/11/12 08:41:51;;;;;;;26.47;11.03;;;3.60;99.90;;;;;;5114572;28;20210;-76
2022/11/12 08:44:19;;;;;;;59.20;10.23;;;4.00;99.90;;;;;;5114759;28;20281;-76
2022/11/12 08:46:47;;;;;;;50.97;11.23;;;3.80;99.90;;;;;;5095985;28;20210;-75
2022/11/12 08:49:18;;;;;;;35.37;8.70;;;3.70;99.90;;;;;;5094445;28;20229;-76
2022/11/12 08:51:46;;;;;;;39.70;8.33;;;3.90;99.90;;;;;;5095512;28;20225;-74
2022/11/12 08:54:14;;;;;;;53.63;9.53;;;3.70;99.90;;;;;;5106464;28;20575;-74
2022/11/12 08:56:44;;;;;;;73.73;11.10;;;3.80;99.90;;;;;;5115576;28;20214;-75
2022/11/12 08:59:15;;;;;;;72.30;11.87;;;3.70;99.90;;;;;;5115398;28;20212;-75
2022/11/12 09:01:43;;;;;;;28.97;11.00;;;3.80;99.90;;;;;;5115452;28;20830;-75
2022/11/12 09:04:13;;;;;;;50.77;10.73;;;3.90;99.90;;;;;;5117002;28;20202;-76
2022/11/12 09:06:43;;;;;;;37.03;11.10;;;3.90;99.90;;;;;;5119107;28;20187;-79
2022/11/12 09:09:18;;;;;;;40.57;11.10;;;3.90;99.90;;;;;;5115441;28;20210;-75
2022/11/12 09:11:47;;;;;;;24.43;11.57;;;4.10;99.90;;;;;;5114205;28;20213;-74
2022/11/12 09:14:17;;;;;;;56.70;13.03;;;4.00;99.90;;;;;;5117469;28;20209;-75
2022/11/12 09:16:50;;;;;;;27.47;14.33;;;4.00;99.90;;;;;;5117098;28;20232;-75
2022/11/12 09:19:18;;;;;;;43.93;12.03;;;4.20;99.90;;;;;;5109561;28;20209;-74
2022/11/12 09:21:46;;;;;;;41.17;12.27;;;4.10;99.90;;;;;;5098227;28;20297;-74
2022/11/12 09:24:14;;;;;;;37.43;12.10;;;4.10;99.90;;;;;;5097306;28;20211;-75
2022/11/12 09:26:43;;;;;;;32.60;11.07;;;4.20;99.90;;;;;;5097042;28;20218;-78
2022/11/12 09:29:13;;;;;;;20.93;11.40;;;4.30;99.90;;;;;;5105814;28;20230;-76
2022/11/12 09:31:45;;;;;;;18.93;10.60;;;4.30;99.90;;;;;;5116637;28;20171;-75
2022/11/12 09:34:14;;;;;;;24.43;13.90;;;4.40;99.90;;;;;;5116941;28;20300;-76
2022/11/12 09:36:51;;;;;;;23.90;14.40;;;4.50;99.90;;;;;;5117230;28;20202;-75
2022/11/12 09:39:31;;;;;;;17.03;12.90;;;4.50;99.90;;;;;;5119875;28;20202;-74
2022/11/12 09:42:05;;;;;;;67.47;15.00;;;4.70;99.90;;;;;;5119241;28;20656;-79
2022/11/12 09:44:37;;;;;;;27.77;13.57;;;4.80;99.90;;;;;;5118891;28;20212;-75
2022/11/12 09:47:14;;;;;;;20.67;13.37;;;4.80;99.90;;;;;;5117816;28;20217;-74
2022/11/12 09:49:50;;;;;;;31.13;13.83;;;4.90;99.90;;;;;;5099455;28;20217;-74
2022/11/12 09:52:26;;;;;;;24.90;13.83;;;4.80;99.90;;;;;;5118556;28;20214;-76
2022/11/12 09:55:02;;;;;;;23.03;11.57;;;4.90;99.90;;;;;;5116446;28;20190;-75
2022/11/12 09:57:32;;;;;;;15.03;10.70;;;4.80;99.90;;;;;;5098456;28;20217;-75
2022/11/12 10:00:02;;;;;;;14.43;11.13;;;4.80;99.90;;;;;;5098124;28;20207;-74
2022/11/12 10:02:38;;;;;;;18.57;11.73;;;4.90;99.90;;;;;;5098737;28;20214;-74
2022/11/12 10:05:31;;;;;;;17.00;12.03;;;5.10;99.90;;;;;;5098436;28;20202;-74
2022/11/12 10:08:15;;;;;;;19.53;14.10;;;5.10;99.90;;;;;;5097410;28;20207;-76
2022/11/12 10:10:48;;;;;;;16.73;12.47;;;5.20;99.90;;;;;;5097181;28;20230;-75
2022/11/12 10:13:37;;;;;;;16.10;11.60;;;5.20;99.90;;;;;;5101852;28;20205;-76
2022/11/12 10:19:35;;;;;;;20.33;13.27;;;5.30;99.90;;;;;;5118327;28;20205;-75
2022/11/12 10:22:18;;;;;;;20.97;14.57;;;5.20;99.90;;;;;;5116583;28;20206;-75
2022/11/12 10:24:49;;;;;;;21.37;13.77;;;5.20;99.90;;;;;;5118953;28;20191;-76
2022/11/12 10:27:21;;;;;;;24.97;14.83;;;5.30;99.90;;;;;;5118744;28;20214;-75
2022/11/12 10:29:57;;;;;;;22.37;15.50;;;5.20;99.90;;;;;;5117528;28;20218;-75
2022/11/12 10:32:25;;;;;;;20.80;15.70;;;5.20;99.90;;;;;;5117235;28;20212;-76
2022/11/12 10:34:54;;;;;;;20.37;15.50;;;5.30;99.90;;;;;;5117188;28;20217;-76
2022/11/12 10:37:32;;;;;;;21.83;16.37;;;5.40;99.90;;;;;;5117650;28;20222;-75
2022/11/12 10:40:32;;;;;;;22.10;17.13;;;5.50;99.90;;;;;;5113923;28;20206;-76
2022/11/12 10:43:01;;;;;;;22.33;15.47;;;5.50;99.90;;;;;;5117098;28;20205;-75
2022/11/12 10:45:30;;;;;;;21.87;14.60;;;5.60;99.90;;;;;;5116908;28;20650;-74
2022/11/12 10:47:59;;;;;;;24.03;16.30;;;5.50;99.90;;;;;;5117312;28;20221;-75
2022/11/12 10:50:34;;;;;;;35.77;28.30;;;5.70;99.90;;;;;;5098301;28;20238;-74
2022/11/12 10:53:04;;;;;;;19.63;14.73;;;5.80;99.90;;;;;;5097457;28;20191;-74
2022/11/12 10:55:54;;;;;;;17.73;14.07;;;5.90;99.90;;;;;;5101538;28;20218;-75
2022/11/12 10:58:22;;;;;;;18.70;13.73;;;6.00;99.90;;;;;;5102457;28;20210;-77
2022/11/12 11:01:00;;;;;;;18.87;13.97;;;6.00;99.90;;;;;;5116584;28;20248;-76
2022/11/12 11:03:32;;;;;;;18.63;13.87;;;5.90;99.90;;;;;;5117496;28;20193;-76
2022/11/12 11:06:02;;;;;;;18.37;14.00;;;5.80;99.90;;;;;;5117225;28;20197;-76
2022/11/12 11:08:45;;;;;;;17.13;14.07;;;5.90;99.90;;;;;;5114968;28;20201;-77
2022/11/12 11:11:26;;;;;;;19.40;13.97;;;6.00;99.90;;;;;;5116863;28;20226;-77
2022/11/12 11:13:57;;;;;;;17.53;13.67;;;6.00;99.90;;;;;;5116490;28;20540;-76
2022/11/12 11:16:27;;;;;;;18.47;14.23;;;6.10;99.90;;;;;;5115215;28;20204;-77
2022/11/12 11:18:59;;;;;;;17.23;13.90;;;6.10;99.90;;;;;;5116661;28;20571;-76
2022/11/12 11:21:55;;;;;;;17.17;13.40;;;6.00;99.90;;;;;;5116579;28;20205;-76
2022/11/12 11:24:34;;;;;;;18.10;12.40;;;6.00;99.90;;;;;;5116692;28;20205;-75
2022/11/12 11:27:11;;;;;;;15.00;12.23;;;6.00;99.90;;;;;;5116520;28;20193;-78
2022/11/12 11:30:14;;;;;;;18.03;14.00;;;6.00;99.90;;;;;;5123358;28;20217;-78
2022/11/12 11:33:12;;;;;;;14.60;12.93;;;5.80;99.90;;;;;;5112221;28;20209;-77
2022/11/12 11:35:55;;;;;;;15.40;12.43;;;5.90;99.90;;;;;;5125903;28;20253;-77
2022/11/12 11:38:44;;;;;;;14.47;12.70;;;6.00;99.90;;;;;;5121283;28;20585;-76
2022/11/12 11:41:33;;;;;;;13.43;10.17;;;6.10;99.90;;;;;;5118544;28;20612;-76
2022/11/12 11:44:14;;;;;;;10.77;9.67;;;6.20;99.90;;;;;;5114964;28;20209;-76
2022/11/12 11:47:02;;;;;;;13.17;11.77;;;6.20;99.90;;;;;;5115314;28;20209;-76
2022/11/12 11:49:53;;;;;;;13.50;10.03;;;6.30;99.90;;;;;;5114397;28;20190;-77
2022/11/12 11:52:43;;;;;;;10.77;9.67;;;6.40;99.90;;;;;;5115326;28;20292;-74
2022/11/12 11:55:27;;;;;;;11.83;10.63;;;6.60;99.90;;;;;;5116236;28;20209;-76
2022/11/12 11:58:06;;;;;;;11.63;10.43;;;6.60;99.90;;;;;;5115076;28;20205;-76
2022/11/12 12:00:46;;;;;;;12.20;10.90;;;6.50;99.90;;;;;;5114998;28;20238;-75
2022/11/12 12:03:20;;;;;;;12.90;10.17;;;6.60;99.90;;;;;;5099707;28;20207;-75
2022/11/12 12:06:19;;;;;;;11.37;10.17;;;6.60;99.90;;;;;;5094962;28;20217;-76
2022/11/12 12:09:03;;;;;;;11.20;10.10;;;6.70;99.90;;;;;;5093239;28;20676;-77
2022/11/12 12:11:37;;;;;;;11.00;9.90;;;7.00;99.90;;;;;;5095275;28;20214;-77
2022/11/12 12:14:21;;;;;;;10.80;9.70;;;7.20;99.90;;;;;;5094109;28;20660;-76
2022/11/12 12:17:04;;;;;;;10.40;9.40;;;7.10;99.90;;;;;;5094452;28;20230;-76
2022/11/12 12:19:44;;;;;;;11.07;10.07;;;7.00;99.90;;;;;;5095146;28;20206;-77
2022/11/12 12:22:16;;;;;;;11.93;10.23;;;7.00;99.90;;;;;;5094909;28;20211;-76
2022/11/12 12:24:50;;;;;;;11.17;10.07;;;7.10;99.90;;;;;;5094624;28;20198;-76
2022/11/12 12:27:24;;;;;;;11.40;10.20;;;7.10;99.90;;;;;;5094547;28;20229;-74
2022/11/12 12:29:57;;;;;;;10.73;9.63;;;7.30;99.90;;;;;;5094505;28;20191;-76
2022/11/12 12:32:33;;;;;;;11.70;10.50;;;7.20;99.90;;;;;;5094816;28;20206;-74
2022/11/12 12:35:08;;;;;;;11.10;10.00;;;7.30;99.90;;;;;;5094820;28;20721;-76
2022/11/12 12:37:46;;;;;;;10.93;9.83;;;7.30;99.90;;;;;;5094876;28;20206;-77
2022/11/12 12:40:20;;;;;;;11.50;10.40;;;7.20;99.90;;;;;;5095055;28;20199;-76
2022/11/12 12:42:54;;;;;;;11.57;10.50;;;7.10;99.90;;;;;;5095536;28;20191;-76
2022/11/12 12:45:42;;;;;;;11.60;10.43;;;7.10;99.90;;;;;;5097159;28;20199;-76
2022/11/12 12:48:17;;;;;;;11.80;10.70;;;7.30;99.90;;;;;;5103842;28;20214;-75
2022/11/12 12:50:50;;;;;;;13.23;11.93;;;7.10;99.90;;;;;;5118905;28;20634;-75
2022/11/12 12:53:32;;;;;;;12.90;11.70;;;6.90;99.90;;;;;;5118809;28;20190;-76
2022/11/12 12:56:04;;;;;;;12.73;11.50;;;7.00;99.90;;;;;;5117961;28;20221;-76
2022/11/12 12:58:41;;;;;;;12.13;11.00;;;7.00;99.90;;;;;;5098185;28;20203;-76
2022/11/12 13:01:27;;;;;;;12.50;11.17;;;7.10;99.90;;;;;;5080331;28;20234;-76
2022/11/12 13:04:00;;;;;;;12.50;11.20;;;7.20;99.90;;;;;;5111011;28;20193;-75
2022/11/12 13:06:32;;;;;;;12.63;11.43;;;7.20;99.90;;;;;;5112161;28;20238;-76
2022/11/12 13:09:25;;;;;;;13.30;12.03;;;7.20;99.90;;;;;;5113360;28;20270;-77
2022/11/12 13:15:12;;;;;;;14.63;13.17;;;6.90;99.90;;;;;;5098354;28;20221;-75
2022/11/12 13:17:58;;;;;;;14.17;12.67;;;7.00;99.90;;;;;;5099574;28;20732;-77
2022/11/12 13:20:38;;;;;;;14.37;12.63;;;6.90;99.90;;;;;;5097291;28;20584;-78
2022/11/12 13:23:31;;;;;;;15.30;13.80;;;6.80;99.90;;;;;;5097231;28;20214;-76
2022/11/12 13:26:36;;;;;;;15.27;13.77;;;6.80;99.90;;;;;;5096992;28;20213;-77
2022/11/12 13:29:42;;;;;;;16.13;14.53;;;6.80;99.90;;;;;;5096655;28;20213;-77
2022/11/12 13:32:32;;;;;;;15.57;14.07;;;6.80;99.90;;;;;;5097409;28;20731;-75
2022/11/12 13:35:27;;;;;;;16.70;15.10;;;6.90;99.90;;;;;;5096856;28;20219;-76
2022/11/12 13:38:00;;;;;;;16.97;15.27;;;6.90;99.90;;;;;;5095353;28;20213;-77